createdAt,value
2023-04-16T00:01:21.672Z,17.08
2023-04-16T00:03:49.096Z,17.42
2023-04-16T00:06:22.627Z,18.17
2023-04-16T00:08:49.876Z,19.90
2023-04-16T00:11:23.695Z,18.98
2023-04-16T00:13:50.743Z,20.88
2023-04-16T00:16:23.778Z,20.10
2023-04-16T00:18:50.716Z,20.33
2023-04-16T00:21:23.632Z,20.90
2023-04-16T00:23:50.627Z,21.70
2023-04-16T00:26:23.659Z,20.85
2023-04-16T00:28:56.665Z,21.58
2023-04-16T00:31:31.352Z,22.25
2023-04-16T00:34:05.606Z,21.20
2023-04-16T00:36:32.378Z,22.15
2023-04-16T00:39:05.935Z,22.50
2023-04-16T00:41:32.649Z,23.38
2023-04-16T00:44:05.644Z,23.27
2023-04-16T00:46:39.934Z,24.23
2023-04-16T00:49:13.739Z,23.67
2023-04-16T00:51:40.682Z,23.00
2023-04-16T00:54:13.663Z,24.27
2023-04-16T00:56:47.842Z,24.08
2023-04-16T00:59:21.686Z,24.77
2023-04-16T01:01:48.927Z,24.08
2023-04-16T01:04:22.916Z,25.40
2023-04-16T01:06:56.625Z,23.63
2023-04-16T01:09:29.714Z,23.65
2023-04-16T01:11:57.062Z,25.35
2023-04-16T01:14:30.737Z,23.80
2023-04-16T01:16:57.558Z,25.98
2023-04-16T01:19:30.768Z,25.33
2023-04-16T01:22:05.650Z,23.75
2023-04-16T01:24:32.744Z,26.65
2023-04-16T01:27:06.679Z,24.48
2023-04-16T01:29:33.549Z,24.35
2023-04-16T01:32:06.687Z,25.42
2023-04-16T01:34:33.425Z,25.15
2023-04-16T01:37:06.680Z,24.65
2023-04-16T01:39:33.447Z,24.77
2023-04-16T01:42:06.750Z,25.33
2023-04-16T01:44:39.663Z,26.40
2023-04-16T01:47:19.765Z,25.10
2023-04-16T01:49:54.721Z,24.45
2023-04-16T01:52:21.451Z,25.42
2023-04-16T01:54:54.758Z,24.88
2023-04-16T01:57:21.454Z,26.98
2023-04-16T01:59:54.801Z,25.13
2023-04-16T02:02:25.924Z,26.00
2023-04-16T02:04:59.800Z,26.27
2023-04-16T02:07:27.582Z,26.92
2023-04-16T02:10:00.743Z,26.85
2023-04-16T02:12:27.607Z,26.65
2023-04-16T02:15:00.733Z,26.00
2023-04-16T02:17:27.515Z,26.17
2023-04-16T02:20:00.735Z,26.38
2023-04-16T02:22:27.370Z,27.60
2023-04-16T02:24:54.192Z,26.85
2023-04-16T02:27:27.768Z,27.40
2023-04-16T02:29:54.538Z,26.42
2023-04-16T02:32:28.735Z,26.75
2023-04-16T02:34:57.251Z,25.73
2023-04-16T02:37:31.790Z,24.88
2023-04-16T02:39:58.638Z,25.77
2023-04-16T02:42:31.732Z,27.25
2023-04-16T02:45:04.875Z,27.13
2023-04-16T02:47:44.808Z,26.60
2023-04-16T02:50:12.193Z,27.10
2023-04-16T02:52:38.996Z,28.17
2023-04-16T02:55:14.061Z,27.00
2023-04-16T02:57:42.745Z,28.73
2023-04-16T03:00:16.735Z,27.52
2023-04-16T03:02:43.631Z,27.02
2023-04-16T03:05:17.815Z,25.55
2023-04-16T03:07:44.590Z,28.05
2023-04-16T03:10:18.795Z,26.90
2023-04-16T03:12:45.844Z,26.27
2023-04-16T03:15:13.075Z,29.30
2023-04-16T03:17:46.855Z,28.23
2023-04-16T03:20:14.659Z,26.75
2023-04-16T03:22:47.767Z,30.00
2023-04-16T03:25:14.966Z,29.00
2023-04-16T03:27:48.901Z,27.75
2023-04-16T03:30:16.965Z,28.77
2023-04-16T03:32:43.672Z,28.67
2023-04-16T03:35:17.786Z,28.10
2023-04-16T03:37:50.772Z,28.70
2023-04-16T03:40:17.695Z,28.88
2023-04-16T03:42:57.705Z,30.23
2023-04-16T03:45:44.778Z,27.90
2023-04-16T03:48:18.844Z,28.63
2023-04-16T03:50:47.791Z,30.08
2023-04-16T03:53:21.788Z,28.77
2023-04-16T03:55:52.453Z,28.20
2023-04-16T03:58:26.732Z,27.27
2023-04-16T04:01:01.845Z,27.10
2023-04-16T04:03:28.985Z,28.75
2023-04-16T04:06:02.790Z,27.45
2023-04-16T04:08:29.526Z,28.85
2023-04-16T04:11:02.822Z,28.25
2023-04-16T04:13:29.576Z,26.73
2023-04-16T04:16:02.771Z,28.80
2023-04-16T04:18:29.560Z,28.45
2023-04-16T04:20:56.355Z,27.95
2023-04-16T04:23:29.960Z,28.73
2023-04-16T04:26:03.954Z,29.92
2023-04-16T04:28:37.967Z,28.60
2023-04-16T04:31:11.943Z,27.75
2023-04-16T04:33:44.817Z,29.52
2023-04-16T04:36:18.785Z,29.90
2023-04-16T04:38:45.760Z,28.50
2023-04-16T04:41:34.831Z,29.25
2023-04-16T04:44:14.782Z,30.10
2023-04-16T04:46:48.174Z,30.90
2023-04-16T04:49:21.768Z,30.20
2023-04-16T04:51:48.806Z,30.60
2023-04-16T04:54:22.859Z,30.35
2023-04-16T04:56:55.893Z,29.42
2023-04-16T04:59:23.399Z,30.08
2023-04-16T05:01:57.800Z,30.42
2023-04-16T05:04:30.885Z,28.23
2023-04-16T05:06:57.609Z,28.50
2023-04-16T05:09:30.822Z,29.38
2023-04-16T05:12:04.793Z,29.63
2023-04-16T05:14:31.491Z,29.08
2023-04-16T05:17:05.087Z,28.17
2023-04-16T05:19:38.833Z,28.80
2023-04-16T05:22:12.844Z,29.20
2023-04-16T05:24:45.869Z,27.42
2023-04-16T05:27:18.742Z,27.80
2023-04-16T05:29:45.511Z,27.08
2023-04-16T05:32:18.812Z,28.60
2023-04-16T05:34:45.522Z,28.83
2023-04-16T05:37:18.831Z,26.85
2023-04-16T05:39:45.677Z,27.67
2023-04-16T05:42:12.306Z,26.17
2023-04-16T05:44:45.827Z,26.02
2023-04-16T05:47:18.928Z,26.98
2023-04-16T05:49:51.799Z,26.85
2023-04-16T05:52:24.788Z,26.83
2023-04-16T05:54:57.832Z,26.63
2023-04-16T05:57:31.311Z,26.77
2023-04-16T06:00:05.079Z,28.00
2023-04-16T06:02:32.112Z,25.88
2023-04-16T06:05:05.903Z,28.17
2023-04-16T06:07:32.673Z,26.48
2023-04-16T06:10:05.864Z,26.98
2023-04-16T06:12:32.607Z,26.30
2023-04-16T06:15:06.964Z,26.92
2023-04-16T06:17:33.689Z,26.30
2023-04-16T06:20:06.812Z,26.48
2023-04-16T06:22:34.901Z,26.80
2023-04-16T06:25:07.832Z,34.75
2023-04-16T06:27:40.868Z,31.02
2023-04-16T06:30:14.031Z,26.00
2023-04-16T06:32:48.165Z,26.15
2023-04-16T06:35:21.817Z,26.67
2023-04-16T06:37:55.852Z,27.50
2023-04-16T06:40:29.874Z,26.73
2023-04-16T06:43:02.850Z,26.25
2023-04-16T06:45:35.859Z,26.85
2023-04-16T06:48:15.895Z,27.38
2023-04-16T06:50:49.910Z,26.55
2023-04-16T06:53:16.800Z,33.75
2023-04-16T06:55:50.233Z,30.35
2023-04-16T06:58:17.173Z,27.13
2023-04-16T07:00:50.913Z,25.75
2023-04-16T07:03:24.046Z,27.15
2023-04-16T07:05:50.864Z,27.15
2023-04-16T07:08:17.611Z,27.17
2023-04-16T07:10:50.948Z,28.05
2023-04-16T07:13:18.841Z,27.88
2023-04-16T07:15:51.914Z,26.98
2023-04-16T07:18:20.307Z,32.25
2023-04-16T07:20:55.052Z,31.50
2023-04-16T07:23:21.851Z,27.38
2023-04-16T07:25:49.638Z,27.85
2023-04-16T07:28:25.882Z,27.02
2023-04-16T07:30:53.803Z,27.40
2023-04-16T07:33:26.874Z,27.77
2023-04-16T07:35:53.681Z,25.50
2023-04-16T07:38:26.878Z,27.80
2023-04-16T07:40:53.683Z,27.40
2023-04-16T07:43:26.901Z,27.52
2023-04-16T07:46:00.119Z,28.90
2023-04-16T07:48:33.956Z,29.00
2023-04-16T07:51:00.725Z,27.85
2023-04-16T07:53:33.879Z,28.33
2023-04-16T07:56:01.166Z,28.33
2023-04-16T07:58:27.959Z,28.15
2023-04-16T08:01:00.889Z,28.95
2023-04-16T08:03:28.090Z,28.13
2023-04-16T08:06:08.992Z,27.25
2023-04-16T08:08:35.719Z,26.58
2023-04-16T08:11:08.974Z,27.05
2023-04-16T08:13:35.811Z,27.83
2023-04-16T08:16:08.912Z,28.10
2023-04-16T08:18:35.707Z,26.85
2023-04-16T08:21:08.967Z,27.85
2023-04-16T08:23:35.875Z,27.15
2023-04-16T08:26:08.927Z,25.50
2023-04-16T08:28:35.579Z,26.00
2023-04-16T08:31:08.895Z,25.08
2023-04-16T08:33:35.899Z,25.17
2023-04-16T08:36:02.602Z,24.50
2023-04-16T08:38:35.933Z,24.52
2023-04-16T08:41:06.886Z,24.65
2023-04-16T08:43:43.873Z,25.50
2023-04-16T08:46:18.968Z,24.33
2023-04-16T08:48:56.938Z,23.85
2023-04-16T08:51:27.588Z,23.05
2023-04-16T08:54:08.922Z,23.80
2023-04-16T08:56:43.204Z,23.88
2023-04-16T08:59:16.874Z,23.85
2023-04-16T09:01:44.032Z,22.48
2023-04-16T09:04:23.995Z,22.55
2023-04-16T09:06:58.984Z,21.70
2023-04-16T09:09:34.653Z,24.25
2023-04-16T09:12:07.996Z,23.50
2023-04-16T09:14:34.695Z,23.02
2023-04-16T09:17:08.908Z,22.73
2023-04-16T09:19:35.804Z,22.40
2023-04-16T09:22:08.945Z,21.98
2023-04-16T09:24:35.758Z,20.92
2023-04-16T09:27:09.968Z,20.75
2023-04-16T09:29:38.291Z,21.73
2023-04-16T09:32:14.003Z,20.85
2023-04-16T09:35:01.330Z,20.98
2023-04-16T09:37:36.958Z,21.15
2023-04-16T09:40:05.371Z,21.40
2023-04-16T09:42:41.984Z,21.25
2023-04-16T09:45:15.992Z,20.02
2023-04-16T09:47:57.950Z,20.80
2023-04-16T09:50:26.715Z,20.20
2023-04-16T09:52:59.920Z,19.70
2023-04-16T09:55:27.822Z,19.50
2023-04-16T09:58:09.051Z,19.55
2023-04-16T10:00:35.827Z,19.30
2023-04-16T10:03:17.005Z,19.60
2023-04-16T10:05:43.949Z,19.10
2023-04-16T10:08:21.001Z,19.75
2023-04-16T10:10:54.992Z,19.95
2023-04-16T10:13:28.027Z,20.23
2023-04-16T10:15:58.297Z,18.58
2023-04-16T10:18:31.959Z,19.58
2023-04-16T10:20:59.383Z,18.67
2023-04-16T10:23:26.954Z,19.23
2023-04-16T10:26:00.998Z,19.13
2023-04-16T10:28:36.035Z,18.00
2023-04-16T10:31:05.818Z,18.60
2023-04-16T10:33:46.989Z,19.45
2023-04-16T10:36:16.571Z,17.42
2023-04-16T10:38:57.978Z,20.13
2023-04-16T10:41:33.970Z,19.42
2023-04-16T10:44:09.614Z,17.95
2023-04-16T10:46:51.940Z,17.45
2023-04-16T10:49:26.108Z,17.45
2023-04-16T10:52:03.033Z,17.77
2023-04-16T10:54:38.016Z,18.58
2023-04-16T10:57:12.997Z,17.20
2023-04-16T10:59:49.224Z,17.98
2023-04-16T11:02:27.217Z,18.08
2023-04-16T11:04:57.565Z,17.50
2023-04-16T11:07:40.970Z,17.33
2023-04-16T11:10:12.901Z,18.30
2023-04-16T11:12:47.963Z,18.15
2023-04-16T11:15:23.011Z,17.85
2023-04-16T11:17:54.799Z,17.27
2023-04-16T11:20:30.004Z,18.35
2023-04-16T11:22:58.233Z,18.63
2023-04-16T11:25:37.062Z,18.08
2023-04-16T11:28:04.025Z,18.35
2023-04-16T11:30:43.045Z,17.25
2023-04-16T11:33:17.983Z,17.67
2023-04-16T11:35:46.251Z,17.33
2023-04-16T11:38:20.004Z,17.98
2023-04-16T11:40:51.877Z,16.88
2023-04-16T11:43:24.989Z,16.52
2023-04-16T11:46:24.055Z,18.38
2023-04-16T11:49:07.065Z,16.33
2023-04-16T11:51:41.087Z,17.38
2023-04-16T11:54:11.609Z,17.13
2023-04-16T11:56:45.126Z,16.95
2023-04-16T11:59:15.391Z,17.48
2023-04-16T12:01:52.198Z,17.27
2023-04-16T12:04:28.050Z,16.67
2023-04-16T12:07:23.034Z,17.15
2023-04-16T12:09:57.054Z,16.35
2023-04-16T12:12:32.310Z,16.77
2023-04-16T12:15:10.089Z,16.23
2023-04-16T12:17:38.353Z,16.35
2023-04-16T12:20:21.997Z,15.18
2023-04-16T12:22:49.943Z,14.50
2023-04-16T12:25:25.066Z,15.25
2023-04-16T12:28:02.040Z,14.23
2023-04-16T12:30:36.100Z,13.82
2023-04-16T12:33:24.063Z,15.02
2023-04-16T12:35:51.201Z,14.27
2023-04-16T12:38:24.681Z,15.35
2023-04-16T12:40:59.169Z,14.93
2023-04-16T12:43:26.647Z,14.57
2023-04-16T12:46:07.110Z,14.50
2023-04-16T12:48:34.112Z,14.25
2023-04-16T12:51:07.111Z,14.02
2023-04-16T12:53:33.858Z,14.25
2023-04-16T12:56:07.097Z,14.02
2023-04-16T12:58:41.006Z,14.38
2023-04-16T13:01:07.826Z,13.35
2023-04-16T13:03:44.424Z,13.55
2023-04-16T13:06:18.147Z,13.90
2023-04-16T13:08:45.832Z,14.20
2023-04-16T13:11:19.993Z,14.25
2023-04-16T13:13:53.116Z,13.50
2023-04-16T13:16:19.846Z,13.52
2023-04-16T13:18:53.123Z,13.35
2023-04-16T13:21:20.005Z,14.05
2023-04-16T13:23:53.123Z,14.18
2023-04-16T13:26:19.943Z,13.95
2023-04-16T13:28:53.122Z,13.65
2023-04-16T13:31:22.512Z,14.98
2023-04-16T13:33:57.138Z,13.65
2023-04-16T13:36:25.656Z,14.63
2023-04-16T13:39:01.160Z,13.68
2023-04-16T13:41:27.937Z,13.68
2023-04-16T13:43:55.049Z,12.98
2023-04-16T13:46:28.220Z,12.65
2023-04-16T13:49:08.196Z,12.50
2023-04-16T13:51:42.052Z,12.27
2023-04-16T13:54:08.822Z,12.98
2023-04-16T13:56:42.064Z,13.27
2023-04-16T13:59:09.026Z,12.80
2023-04-16T14:01:42.132Z,13.20
2023-04-16T14:04:08.991Z,14.02
2023-04-16T14:06:42.174Z,13.15
2023-04-16T14:09:11.191Z,13.05
2023-04-16T14:11:45.111Z,13.07
2023-04-16T14:14:12.508Z,12.73
2023-04-16T14:16:46.155Z,12.30
2023-04-16T14:19:13.320Z,11.80
2023-04-16T14:21:47.092Z,12.80
2023-04-16T14:24:20.122Z,12.25
2023-04-16T14:26:47.176Z,12.00
2023-04-16T14:29:20.134Z,11.30
2023-04-16T14:31:46.950Z,12.23
2023-04-16T14:34:20.148Z,11.57
2023-04-16T14:36:47.095Z,11.68
2023-04-16T14:39:20.128Z,14.77
2023-04-16T14:41:46.935Z,14.57
2023-04-16T14:44:20.161Z,13.98
2023-04-16T14:46:53.165Z,13.70
2023-04-16T14:49:33.117Z,16.02
2023-04-16T14:52:02.321Z,14.10
2023-04-16T14:54:29.217Z,15.70
2023-04-16T14:57:03.114Z,15.02
2023-04-16T14:59:30.062Z,15.30
2023-04-16T15:02:04.212Z,15.05
2023-04-16T15:04:31.537Z,14.63
2023-04-16T15:07:06.152Z,14.43
2023-04-16T15:09:34.898Z,13.80
2023-04-16T15:12:08.134Z,14.13
2023-04-16T15:14:34.993Z,15.40
2023-04-16T15:17:08.252Z,15.35
2023-04-16T15:19:35.138Z,14.15
2023-04-16T15:22:02.003Z,14.27
2023-04-16T15:24:35.140Z,14.85
2023-04-16T15:27:02.776Z,13.70
2023-04-16T15:29:36.142Z,13.40
2023-04-16T15:32:02.902Z,13.60
2023-04-16T15:34:37.173Z,12.43
2023-04-16T15:37:04.182Z,12.98
2023-04-16T15:39:38.234Z,12.88
2023-04-16T15:42:07.438Z,13.50
2023-04-16T15:44:41.326Z,13.02
2023-04-16T15:47:28.185Z,13.85
2023-04-16T15:50:02.275Z,12.80
2023-04-16T15:52:36.163Z,13.63
2023-04-16T15:55:10.243Z,14.23
2023-04-16T15:57:37.081Z,14.98
2023-04-16T16:00:20.298Z,15.18
2023-04-16T16:02:47.950Z,16.48
2023-04-16T16:05:23.160Z,15.02
2023-04-16T16:07:50.340Z,15.77
2023-04-16T16:10:24.196Z,15.00
2023-04-16T16:12:57.284Z,15.63
2023-04-16T16:15:24.105Z,14.80
2023-04-16T16:17:59.279Z,16.30
2023-04-16T16:20:26.245Z,13.95
2023-04-16T16:23:03.155Z,16.02
2023-04-16T16:25:30.579Z,15.27
2023-04-16T16:28:06.510Z,14.73
2023-04-16T16:30:33.817Z,14.10
2023-04-16T16:33:07.272Z,14.35
2023-04-16T16:35:34.073Z,12.93
2023-04-16T16:38:02.018Z,12.02
2023-04-16T16:40:35.220Z,12.30
2023-04-16T16:43:02.887Z,12.23
2023-04-16T16:45:37.178Z,12.10
2023-04-16T16:48:24.216Z,11.57
2023-04-16T16:50:57.185Z,12.02
2023-04-16T16:53:24.009Z,12.13
2023-04-16T16:55:57.226Z,11.85
2023-04-16T16:58:24.005Z,12.07
2023-04-16T17:00:57.310Z,11.98
2023-04-16T17:03:31.354Z,11.38
2023-04-16T17:06:06.228Z,11.73
2023-04-16T17:08:33.059Z,10.45
2023-04-16T17:11:10.275Z,11.02
2023-04-16T17:13:37.231Z,10.45
2023-04-16T17:16:10.512Z,10.93
2023-04-16T17:18:44.260Z,10.65
2023-04-16T17:21:11.737Z,11.20
2023-04-16T17:23:45.274Z,10.27
2023-04-16T17:26:12.611Z,10.65
2023-04-16T17:28:46.243Z,10.13
2023-04-16T17:31:13.205Z,9.60
2023-04-16T17:33:46.262Z,10.05
2023-04-16T17:36:19.256Z,10.23
2023-04-16T17:38:46.327Z,9.48
2023-04-16T17:41:19.268Z,9.85
2023-04-16T17:43:56.243Z,10.45
2023-04-16T17:46:30.269Z,11.02
2023-04-16T17:49:03.652Z,10.55
2023-04-16T17:51:38.258Z,10.35
2023-04-16T17:54:06.325Z,10.13
2023-04-16T17:56:39.246Z,11.25
2023-04-16T17:59:06.424Z,10.98
2023-04-16T18:01:41.547Z,11.40
2023-04-16T18:04:08.719Z,10.50
2023-04-16T18:06:42.258Z,11.32
2023-04-16T18:09:09.244Z,11.60
2023-04-16T18:11:42.246Z,10.88
2023-04-16T18:14:10.383Z,12.07
2023-04-16T18:16:44.223Z,12.40
2023-04-16T18:19:11.885Z,12.50
2023-04-16T18:21:45.204Z,11.70
2023-04-16T18:24:12.639Z,11.88
2023-04-16T18:26:47.121Z,12.50
2023-04-16T18:29:24.830Z,11.90
2023-04-16T18:31:52.258Z,12.13
2023-04-16T18:34:25.273Z,12.52
2023-04-16T18:36:52.371Z,11.48
2023-04-16T18:39:25.255Z,12.23
2023-04-16T18:41:52.291Z,12.45
2023-04-16T18:44:26.292Z,12.73
2023-04-16T18:46:59.442Z,12.57
2023-04-16T18:49:33.227Z,12.77
2023-04-16T18:52:00.032Z,13.43
2023-04-16T18:54:27.826Z,13.40
2023-04-16T18:57:01.302Z,14.00
2023-04-16T18:59:35.319Z,14.13
2023-04-16T19:02:08.306Z,13.98
2023-04-16T19:04:41.316Z,12.95
2023-04-16T19:07:14.275Z,13.55
2023-04-16T19:09:41.219Z,13.98
2023-04-16T19:12:14.407Z,14.02
2023-04-16T19:14:41.400Z,13.88
2023-04-16T19:17:08.433Z,14.13
2023-04-16T19:19:42.230Z,15.73
2023-04-16T19:22:15.202Z,14.80
2023-04-16T19:24:48.255Z,24.88
2023-04-16T19:27:15.034Z,23.27
2023-04-16T19:29:50.282Z,15.25
2023-04-16T19:32:17.011Z,13.85
2023-04-16T19:34:50.272Z,14.52
2023-04-16T19:37:17.149Z,15.63
2023-04-16T19:39:50.267Z,15.55
2023-04-16T19:42:23.596Z,14.40
2023-04-16T19:44:57.555Z,14.68
2023-04-16T19:47:31.341Z,15.18
2023-04-16T19:50:11.431Z,14.75
2023-04-16T19:52:45.246Z,15.38
2023-04-16T19:55:19.289Z,14.82
2023-04-16T19:57:54.256Z,14.95
2023-04-16T20:00:21.204Z,15.30
2023-04-16T20:02:54.367Z,51.92
2023-04-16T20:05:21.472Z,25.58
2023-04-16T20:08:01.302Z,17.30
2023-04-16T20:10:28.076Z,16.50
2023-04-16T20:13:01.271Z,16.15
2023-04-16T20:15:27.998Z,17.63
2023-04-16T20:18:02.434Z,16.75
2023-04-16T20:20:29.149Z,17.15
2023-04-16T20:22:56.155Z,17.88
2023-04-16T20:25:29.334Z,17.17
2023-04-16T20:27:56.129Z,17.13
2023-04-16T20:30:31.418Z,17.40
2023-04-16T20:32:58.654Z,18.30
2023-04-16T20:35:32.269Z,18.35
2023-04-16T20:38:05.330Z,18.45
2023-04-16T20:40:39.341Z,17.75
2023-04-16T20:43:16.289Z,19.13
2023-04-16T20:45:52.340Z,19.13
2023-04-16T20:48:26.374Z,19.77
2023-04-16T20:51:05.288Z,20.20
2023-04-16T20:53:33.100Z,18.85
2023-04-16T20:56:07.418Z,19.83
2023-04-16T20:58:42.856Z,19.77
2023-04-16T21:01:09.932Z,19.63
2023-04-16T21:03:43.433Z,20.77
2023-04-16T21:06:12.898Z,19.83
2023-04-16T21:08:46.273Z,21.40
2023-04-16T21:11:13.383Z,19.88
2023-04-16T21:13:46.294Z,19.98
2023-04-16T21:16:19.422Z,20.88
2023-04-16T21:18:53.321Z,20.42
2023-04-16T21:21:20.351Z,20.67
2023-04-16T21:23:53.319Z,20.33
2023-04-16T21:26:27.318Z,21.17
2023-04-16T21:29:00.344Z,21.10
2023-04-16T21:31:27.580Z,20.35
2023-04-16T21:34:01.362Z,21.60
2023-04-16T21:36:29.504Z,21.02
2023-04-16T21:39:02.371Z,22.10
2023-04-16T21:41:29.171Z,21.80
2023-04-16T21:44:03.359Z,21.50
2023-04-16T21:46:36.436Z,21.30
2023-04-16T21:49:09.648Z,22.25
2023-04-16T21:51:43.382Z,22.10
2023-04-16T21:54:10.303Z,21.50
2023-04-16T21:56:43.389Z,22.17
2023-04-16T21:59:10.655Z,21.75
2023-04-16T22:01:44.485Z,20.90
2023-04-16T22:04:12.393Z,20.98
2023-04-16T22:06:45.377Z,21.77
2023-04-16T22:09:19.420Z,23.05
2023-04-16T22:11:53.361Z,21.42
2023-04-16T22:14:20.739Z,21.17
2023-04-16T22:16:56.602Z,20.35
2023-04-16T22:19:30.444Z,20.92
2023-04-16T22:22:03.331Z,21.58
2023-04-16T22:24:30.303Z,21.77
2023-04-16T22:27:04.389Z,21.42
2023-04-16T22:29:31.119Z,20.33
2023-04-16T22:31:58.158Z,23.45
2023-04-16T22:34:31.400Z,21.48
2023-04-16T22:36:58.204Z,22.55
2023-04-16T22:39:31.371Z,22.77
2023-04-16T22:41:58.121Z,21.05
2023-04-16T22:44:31.345Z,23.05
2023-04-16T22:47:18.315Z,21.95
2023-04-16T22:49:51.318Z,21.02
2023-04-16T22:52:18.079Z,21.63
2023-04-16T22:54:51.349Z,24.67
2023-04-16T22:57:27.444Z,22.08
2023-04-16T22:59:54.630Z,21.92
2023-04-16T23:02:28.501Z,22.23
2023-04-16T23:04:55.353Z,20.58
2023-04-16T23:07:28.382Z,22.95
2023-04-16T23:09:55.137Z,22.30
2023-04-16T23:12:28.424Z,22.90
2023-04-16T23:14:55.292Z,23.00
2023-04-16T23:17:28.393Z,23.27
2023-04-16T23:19:55.262Z,21.88
2023-04-16T23:22:28.318Z,23.15
2023-04-16T23:24:55.119Z,21.92
2023-04-16T23:27:28.384Z,22.55
2023-04-16T23:30:01.312Z,23.48
2023-04-16T23:32:28.052Z,23.75
2023-04-16T23:35:01.396Z,23.77
2023-04-16T23:37:28.104Z,23.27
2023-04-16T23:40:01.411Z,24.05
2023-04-16T23:42:34.355Z,23.92
2023-04-16T23:45:01.261Z,22.63
2023-04-16T23:47:34.431Z,23.90
2023-04-16T23:50:08.028Z,23.95
2023-04-16T23:52:41.566Z,24.85
2023-04-16T23:55:08.758Z,23.42
2023-04-16T23:57:42.396Z,24.05
